createdAt,value
2018-03-31T00:00:08.669Z,6.30
2018-03-31T00:01:08.579Z,5.70
2018-03-31T00:02:08.711Z,5.90
2018-03-31T00:03:08.417Z,5.40
2018-03-31T00:04:08.361Z,5.50
2018-03-31T00:05:08.257Z,5.80
2018-03-31T00:06:08.273Z,5.60
2018-03-31T00:07:08.134Z,5.80
2018-03-31T00:08:08.311Z,5.50
2018-03-31T00:09:07.936Z,6.00
2018-03-31T00:10:07.900Z,5.80
2018-03-31T00:11:07.772Z,5.90
2018-03-31T00:12:07.855Z,6.00
2018-03-31T00:13:07.619Z,5.90
2018-03-31T00:14:07.599Z,5.80
2018-03-31T00:15:07.436Z,6.00
2018-03-31T00:16:07.442Z,5.80
2018-03-31T00:17:07.277Z,6.00
2018-03-31T00:18:07.266Z,5.60
2018-03-31T00:19:07.130Z,6.10
2018-03-31T00:20:07.131Z,5.90
2018-03-31T00:21:06.955Z,5.40
2018-03-31T00:22:06.954Z,5.70
2018-03-31T00:23:06.814Z,6.10
2018-03-31T00:24:06.785Z,6.60
2018-03-31T00:25:06.690Z,6.10
2018-03-31T00:26:06.656Z,5.80
2018-03-31T00:27:06.474Z,6.00
2018-03-31T00:28:06.465Z,6.30
2018-03-31T00:29:06.321Z,6.40
2018-03-31T00:30:06.280Z,6.30
2018-03-31T00:31:06.264Z,6.20
2018-03-31T00:32:06.191Z,5.80
2018-03-31T00:33:05.999Z,6.20
2018-03-31T00:34:06.112Z,6.20
2018-03-31T00:35:05.843Z,6.00
2018-03-31T00:36:05.805Z,6.10
2018-03-31T00:37:05.654Z,6.20
2018-03-31T00:38:05.617Z,6.30
2018-03-31T00:39:05.510Z,6.60
2018-03-31T00:40:05.555Z,6.40
2018-03-31T00:41:05.336Z,6.60
2018-03-31T00:42:05.338Z,6.80
2018-03-31T00:43:05.169Z,7.00
2018-03-31T00:44:05.142Z,6.40
2018-03-31T00:45:05.031Z,6.30
2018-03-31T00:46:05.055Z,6.20
2018-03-31T00:47:04.848Z,6.00
2018-03-31T00:48:04.869Z,6.10
2018-03-31T00:49:04.691Z,6.40
2018-03-31T00:50:04.699Z,6.50
2018-03-31T00:51:04.521Z,6.60
2018-03-31T00:52:04.586Z,6.30
2018-03-31T00:53:04.368Z,6.80
2018-03-31T00:54:04.427Z,6.80
2018-03-31T00:55:04.216Z,6.90
2018-03-31T00:56:04.197Z,7.50
2018-03-31T00:57:04.070Z,7.00
2018-03-31T00:58:04.008Z,7.40
2018-03-31T00:59:03.886Z,7.50
2018-03-31T01:00:03.963Z,6.80
2018-03-31T01:01:03.755Z,6.90
2018-03-31T01:02:03.798Z,6.80
2018-03-31T01:03:03.554Z,6.90
2018-03-31T01:04:03.538Z,7.80
2018-03-31T01:05:03.387Z,7.40
2018-03-31T01:06:03.373Z,8.00
2018-03-31T01:07:03.229Z,7.70
2018-03-31T01:08:03.250Z,7.60
2018-03-31T01:09:03.068Z,7.80
2018-03-31T01:10:03.056Z,7.60
2018-03-31T01:11:02.926Z,7.90
2018-03-31T01:12:02.871Z,7.30
2018-03-31T01:13:02.741Z,7.20
2018-03-31T01:14:02.782Z,7.20
2018-03-31T01:15:02.580Z,7.40
2018-03-31T01:16:02.623Z,7.60
2018-03-31T01:17:02.418Z,7.60
2018-03-31T01:18:02.397Z,7.10
2018-03-31T01:19:02.255Z,7.40
2018-03-31T01:20:02.183Z,7.40
2018-03-31T01:21:02.133Z,7.60
2018-03-31T01:22:02.118Z,7.80
2018-03-31T01:23:01.936Z,7.50
2018-03-31T01:24:02.024Z,7.50
2018-03-31T01:25:01.798Z,7.50
2018-03-31T01:26:01.759Z,7.50
2018-03-31T01:27:01.616Z,7.80
2018-03-31T01:28:01.637Z,7.80
2018-03-31T01:29:01.449Z,7.90
2018-03-31T01:30:01.453Z,7.00
2018-03-31T01:31:01.293Z,7.50
2018-03-31T01:32:01.308Z,7.80
2018-03-31T01:33:01.124Z,8.30
2018-03-31T01:34:01.174Z,8.40
2018-03-31T01:35:00.980Z,8.20
2018-03-31T01:36:00.981Z,8.80
2018-03-31T01:37:00.909Z,8.70
2018-03-31T01:38:00.797Z,8.60
2018-03-31T01:39:00.636Z,9.10
2018-03-31T01:40:00.705Z,8.70
2018-03-31T01:41:00.479Z,8.50
2018-03-31T01:42:00.535Z,9.60
2018-03-31T01:43:00.316Z,9.20
2018-03-31T01:44:00.235Z,9.40
2018-03-31T01:45:00.145Z,9.10
2018-03-31T01:46:00.128Z,8.90
2018-03-31T01:46:59.989Z,8.90
2018-03-31T01:47:59.959Z,10.20
2018-03-31T01:48:59.831Z,10.30
2018-03-31T01:49:59.837Z,10.00
2018-03-31T01:50:59.681Z,9.50
2018-03-31T01:51:59.645Z,9.90
2018-03-31T01:52:59.519Z,9.60
2018-03-31T01:53:59.452Z,9.50
2018-03-31T01:54:59.352Z,10.40
2018-03-31T01:55:59.425Z,9.90
2018-03-31T01:56:59.232Z,9.60
2018-03-31T01:57:59.209Z,9.60
2018-03-31T01:58:59.005Z,10.20
2018-03-31T01:59:59.060Z,9.80
2018-03-31T02:00:58.856Z,10.60
2018-03-31T02:01:58.921Z,10.90
2018-03-31T02:02:58.702Z,11.00
2018-03-31T02:03:58.712Z,10.70
2018-03-31T02:04:58.522Z,11.80
2018-03-31T02:05:58.513Z,11.40
2018-03-31T02:06:58.364Z,11.30
2018-03-31T02:07:58.358Z,11.00
2018-03-31T02:08:58.219Z,10.80
2018-03-31T02:09:58.227Z,10.80
2018-03-31T02:10:58.032Z,10.50
2018-03-31T02:11:58.036Z,11.10
2018-03-31T02:12:57.892Z,12.60
2018-03-31T02:13:57.878Z,12.90
2018-03-31T02:14:57.703Z,13.10
2018-03-31T02:15:57.771Z,12.70
2018-03-31T02:16:57.557Z,12.30
2018-03-31T02:17:57.570Z,12.30
2018-03-31T02:18:57.402Z,13.20
2018-03-31T02:19:57.378Z,13.60
2018-03-31T02:20:57.225Z,13.90
2018-03-31T02:21:57.184Z,12.20
2018-03-31T02:22:57.066Z,11.90
2018-03-31T02:23:57.126Z,11.90
2018-03-31T02:24:56.894Z,13.10
2018-03-31T02:25:56.904Z,12.40
2018-03-31T02:26:56.747Z,12.70
2018-03-31T02:27:56.755Z,13.10
2018-03-31T02:28:56.574Z,14.10
2018-03-31T02:29:56.657Z,12.60
2018-03-31T02:30:56.409Z,13.70
2018-03-31T02:31:56.440Z,13.60
2018-03-31T02:32:56.288Z,13.40
2018-03-31T02:33:56.241Z,14.90
2018-03-31T02:34:56.094Z,15.70
2018-03-31T02:35:56.048Z,13.80
2018-03-31T02:36:55.916Z,14.50
2018-03-31T02:37:55.856Z,14.10
2018-03-31T02:38:55.778Z,14.40
2018-03-31T02:39:55.774Z,14.30
2018-03-31T02:40:55.592Z,15.90
2018-03-31T02:41:55.534Z,15.00
2018-03-31T02:42:55.438Z,15.80
2018-03-31T02:43:56.455Z,15.50
2018-03-31T02:44:55.286Z,14.60
2018-03-31T02:45:55.310Z,16.00
2018-03-31T02:46:55.099Z,15.10
2018-03-31T02:47:55.101Z,15.10
2018-03-31T02:48:54.940Z,14.70
2018-03-31T02:49:54.942Z,15.50
2018-03-31T02:50:54.794Z,14.10
2018-03-31T02:51:54.821Z,14.40
2018-03-31T02:52:54.668Z,14.20
2018-03-31T02:53:54.636Z,14.30
2018-03-31T02:54:54.463Z,15.60
2018-03-31T02:55:54.565Z,15.30
2018-03-31T02:56:54.345Z,15.90
2018-03-31T02:57:54.250Z,16.00
2018-03-31T02:58:54.123Z,15.80
2018-03-31T02:59:54.191Z,15.50
2018-03-31T03:00:53.960Z,15.30
2018-03-31T03:01:53.968Z,15.40
2018-03-31T03:02:53.798Z,16.70
2018-03-31T03:03:53.774Z,15.00
2018-03-31T03:04:53.659Z,15.20
2018-03-31T03:05:53.673Z,15.10
2018-03-31T03:06:53.473Z,15.30
2018-03-31T03:07:53.494Z,14.50
2018-03-31T03:08:53.337Z,15.50
2018-03-31T03:09:53.300Z,16.40
2018-03-31T03:10:53.156Z,16.40
2018-03-31T03:11:53.110Z,17.60
2018-03-31T03:12:52.980Z,16.90
2018-03-31T03:13:52.965Z,15.40
2018-03-31T03:14:52.817Z,15.00
2018-03-31T03:15:52.832Z,16.40
2018-03-31T03:16:52.684Z,16.70
2018-03-31T03:17:52.639Z,18.30
2018-03-31T03:18:52.511Z,17.00
2018-03-31T03:19:52.450Z,16.90
2018-03-31T03:20:52.343Z,17.10
2018-03-31T03:21:52.385Z,17.40
2018-03-31T03:22:52.225Z,16.50
2018-03-31T03:23:52.164Z,15.90
2018-03-31T03:24:52.011Z,16.70
2018-03-31T03:25:52.061Z,17.00
2018-03-31T03:26:51.841Z,18.60
2018-03-31T03:27:51.782Z,18.10
2018-03-31T03:28:51.663Z,18.50
2018-03-31T03:29:51.692Z,19.50
2018-03-31T03:30:51.565Z,19.00
2018-03-31T03:31:51.503Z,18.50
2018-03-31T03:32:51.347Z,18.90
2018-03-31T03:33:51.316Z,18.00
2018-03-31T03:34:51.186Z,19.10
2018-03-31T03:35:51.223Z,19.40
2018-03-31T03:36:51.034Z,18.50
2018-03-31T03:37:51.054Z,18.50
2018-03-31T03:38:50.852Z,18.60
2018-03-31T03:39:50.840Z,19.30
2018-03-31T03:40:50.691Z,18.10
2018-03-31T03:41:50.693Z,18.70
2018-03-31T03:42:50.534Z,18.10
2018-03-31T03:43:50.557Z,18.50
2018-03-31T03:44:50.368Z,19.30
2018-03-31T03:45:50.367Z,17.90
2018-03-31T03:46:50.217Z,17.00
2018-03-31T03:47:50.218Z,19.30
2018-03-31T03:48:50.049Z,17.10
2018-03-31T03:49:49.990Z,18.40
2018-03-31T03:50:49.875Z,17.10
2018-03-31T03:51:49.920Z,16.70
2018-03-31T03:52:49.725Z,17.40
2018-03-31T03:53:49.701Z,15.60
2018-03-31T03:54:49.546Z,18.50
2018-03-31T03:55:49.609Z,17.40
2018-03-31T03:56:49.379Z,15.60
2018-03-31T03:57:49.425Z,16.90
2018-03-31T03:58:49.268Z,18.00
2018-03-31T03:59:49.234Z,18.70
2018-03-31T04:00:49.054Z,18.50
2018-03-31T04:01:49.144Z,16.50
2018-03-31T04:02:48.885Z,18.40
2018-03-31T04:03:48.848Z,18.30
2018-03-31T04:04:48.720Z,19.70
2018-03-31T04:05:48.765Z,18.30
2018-03-31T04:06:48.571Z,18.60
2018-03-31T04:07:48.612Z,19.30
2018-03-31T04:08:48.395Z,19.00
2018-03-31T04:09:48.373Z,19.40
2018-03-31T04:10:48.222Z,19.50
2018-03-31T04:11:48.188Z,19.70
2018-03-31T04:12:48.078Z,19.70
2018-03-31T04:13:48.092Z,20.20
2018-03-31T04:14:47.914Z,19.80
2018-03-31T04:15:47.904Z,20.30
2018-03-31T04:16:47.738Z,19.60
2018-03-31T04:17:47.754Z,20.70
2018-03-31T04:18:47.595Z,18.80
2018-03-31T04:19:47.558Z,18.80
2018-03-31T04:20:47.408Z,20.30
2018-03-31T04:21:47.458Z,19.00
2018-03-31T04:22:47.258Z,18.30
2018-03-31T04:23:47.239Z,18.60
2018-03-31T04:24:47.076Z,18.90
2018-03-31T04:25:47.094Z,19.20
2018-03-31T04:26:46.913Z,18.30
2018-03-31T04:27:46.886Z,19.40
2018-03-31T04:28:46.766Z,18.50
2018-03-31T04:29:46.768Z,19.20
2018-03-31T04:30:46.579Z,18.40
2018-03-31T04:31:46.576Z,19.80
2018-03-31T04:32:46.415Z,19.40
2018-03-31T04:33:46.417Z,19.40
2018-03-31T04:34:46.250Z,20.70
2018-03-31T04:35:46.300Z,19.90
2018-03-31T04:36:46.083Z,19.00
2018-03-31T04:37:46.099Z,20.10
2018-03-31T04:38:45.939Z,19.20
2018-03-31T04:39:45.918Z,19.70
2018-03-31T04:40:45.757Z,20.10
2018-03-31T04:41:45.721Z,20.30
2018-03-31T04:42:45.604Z,20.50
2018-03-31T04:43:45.670Z,19.80
2018-03-31T04:44:45.427Z,20.80
2018-03-31T04:45:45.433Z,19.90
2018-03-31T04:46:45.278Z,20.50
2018-03-31T04:47:45.246Z,19.80
2018-03-31T04:48:45.091Z,20.70
2018-03-31T04:49:45.057Z,21.30
2018-03-31T04:50:44.938Z,20.60
2018-03-31T04:51:44.994Z,20.30
2018-03-31T04:52:44.779Z,20.60
2018-03-31T04:53:45.189Z,20.70
2018-03-31T04:54:44.603Z,19.40
2018-03-31T04:57:26.850Z,20.40
2018-03-31T04:58:26.781Z,20.60
2018-03-31T04:59:26.634Z,19.20
2018-03-31T05:00:26.595Z,20.00
2018-03-31T05:01:26.538Z,21.40
2018-03-31T05:02:26.506Z,21.00
2018-03-31T05:03:26.302Z,22.20
2018-03-31T05:04:26.412Z,22.40
2018-03-31T05:05:26.162Z,21.50
2018-03-31T05:06:26.145Z,21.70
2018-03-31T05:07:25.978Z,22.00
2018-03-31T05:08:25.936Z,21.00
2018-03-31T05:09:25.808Z,20.50
2018-03-31T05:10:25.838Z,21.00
2018-03-31T05:11:25.667Z,21.30
2018-03-31T05:12:25.642Z,21.80
2018-03-31T05:13:25.486Z,22.70
2018-03-31T05:14:25.531Z,21.10
2018-03-31T05:15:25.314Z,23.90
2018-03-31T05:16:25.297Z,22.60
2018-03-31T05:17:25.160Z,22.50
2018-03-31T05:18:25.171Z,20.10
2018-03-31T05:19:24.995Z,20.80
2018-03-31T05:20:25.012Z,20.30
2018-03-31T05:21:24.899Z,20.60
2018-03-31T05:22:24.822Z,19.60
2018-03-31T05:23:24.657Z,20.10
2018-03-31T05:24:24.709Z,18.80
2018-03-31T05:25:24.518Z,19.20
2018-03-31T05:26:24.596Z,19.40
2018-03-31T05:27:24.332Z,19.20
2018-03-31T05:28:24.317Z,18.90
2018-03-31T05:29:24.162Z,19.60
2018-03-31T05:30:24.128Z,20.30
2018-03-31T05:31:24.023Z,21.20
2018-03-31T05:32:24.062Z,21.00
2018-03-31T05:33:23.845Z,22.90
2018-03-31T05:34:23.856Z,22.50
2018-03-31T05:35:23.685Z,21.40
2018-03-31T05:36:23.649Z,22.40
2018-03-31T05:37:23.528Z,22.30
2018-03-31T05:38:23.459Z,24.10
2018-03-31T05:39:23.347Z,22.00
2018-03-31T05:40:23.424Z,21.90
2018-03-31T05:41:23.180Z,23.10
2018-03-31T05:42:23.208Z,22.50
2018-03-31T05:43:23.017Z,24.50
2018-03-31T05:44:22.982Z,23.00
2018-03-31T05:45:22.849Z,25.10
2018-03-31T05:46:22.899Z,24.40
2018-03-31T05:47:22.710Z,25.30
2018-03-31T05:48:22.707Z,25.10
2018-03-31T05:49:22.523Z,24.60
2018-03-31T05:50:22.519Z,25.90
2018-03-31T05:51:22.355Z,25.40
2018-03-31T05:52:22.349Z,25.00
2018-03-31T05:53:22.214Z,25.30
2018-03-31T05:54:22.242Z,25.80
2018-03-31T05:55:22.044Z,25.60
2018-03-31T05:56:22.044Z,26.00
2018-03-31T05:57:21.974Z,24.70
2018-03-31T05:58:21.880Z,23.60
2018-03-31T05:59:21.700Z,24.80
2018-03-31T06:00:21.683Z,22.90
2018-03-31T06:01:21.531Z,23.10
2018-03-31T06:02:21.577Z,23.00
2018-03-31T06:03:21.389Z,24.20
2018-03-31T06:04:21.383Z,24.30
2018-03-31T06:05:21.201Z,24.50
2018-03-31T06:06:21.186Z,22.80
2018-03-31T06:07:21.046Z,23.50
2018-03-31T06:08:21.025Z,23.20
2018-03-31T06:09:20.875Z,22.60
2018-03-31T06:10:20.910Z,24.40
2018-03-31T06:11:20.720Z,23.70
2018-03-31T06:12:20.720Z,23.00
2018-03-31T06:13:20.567Z,22.00
2018-03-31T06:14:20.532Z,22.30
2018-03-31T06:15:20.384Z,21.60
2018-03-31T06:16:20.437Z,22.90
2018-03-31T06:17:20.233Z,23.10
2018-03-31T06:18:20.279Z,22.60
2018-03-31T06:19:20.090Z,20.60
2018-03-31T06:20:20.059Z,21.50
2018-03-31T06:21:19.900Z,19.70
2018-03-31T06:22:19.867Z,21.00
2018-03-31T06:23:19.726Z,21.60
2018-03-31T06:24:19.727Z,20.40
2018-03-31T06:25:19.568Z,21.80
2018-03-31T06:26:19.576Z,22.00
2018-03-31T06:27:19.402Z,21.50
2018-03-31T06:28:19.388Z,21.60
2018-03-31T06:29:19.273Z,20.40
2018-03-31T06:30:19.300Z,20.40
2018-03-31T06:31:19.073Z,19.60
2018-03-31T06:32:19.115Z,20.00
2018-03-31T06:33:19.889Z,20.20
2018-03-31T06:34:18.930Z,19.70
2018-03-31T06:35:18.772Z,20.20
2018-03-31T06:36:18.748Z,19.90
2018-03-31T06:37:18.591Z,19.80
2018-03-31T06:38:18.650Z,17.90
2018-03-31T06:39:18.444Z,19.30
2018-03-31T06:40:18.471Z,19.30
2018-03-31T06:41:18.256Z,17.60
2018-03-31T06:42:18.253Z,19.10
2018-03-31T06:43:18.083Z,19.60
2018-03-31T06:44:18.071Z,18.90
2018-03-31T06:45:17.943Z,20.10
2018-03-31T06:46:17.926Z,19.30
2018-03-31T06:47:17.761Z,19.40
2018-03-31T06:48:17.790Z,18.90
2018-03-31T06:49:17.605Z,18.10
2018-03-31T06:50:17.636Z,19.50
2018-03-31T06:51:17.473Z,18.90
2018-03-31T06:52:17.461Z,17.70
2018-03-31T06:53:17.285Z,18.50
2018-03-31T06:54:17.307Z,18.40
2018-03-31T06:55:17.131Z,18.10
2018-03-31T06:56:17.148Z,17.90
2018-03-31T06:57:16.948Z,17.20
2018-03-31T06:58:17.009Z,19.10
2018-03-31T06:59:16.783Z,18.60
2018-03-31T07:00:16.763Z,16.00
2018-03-31T07:01:16.621Z,16.90
2018-03-31T07:02:16.647Z,17.50
2018-03-31T07:03:16.460Z,16.50
2018-03-31T07:04:16.509Z,16.00
2018-03-31T07:05:16.402Z,16.20
2018-03-31T07:06:16.260Z,15.30
2018-03-31T07:07:16.129Z,15.20
2018-03-31T07:08:16.180Z,15.90
2018-03-31T07:09:15.966Z,15.50
2018-03-31T07:10:16.021Z,14.70
2018-03-31T07:11:15.826Z,15.00
2018-03-31T07:12:15.800Z,13.80
2018-03-31T07:13:15.657Z,14.10
2018-03-31T07:14:15.598Z,13.60
2018-03-31T07:15:15.487Z,14.10
2018-03-31T07:16:15.548Z,13.70
2018-03-31T07:17:15.322Z,12.00
2018-03-31T07:18:15.367Z,12.40
2018-03-31T07:19:15.189Z,13.30
2018-03-31T07:20:15.129Z,12.70
2018-03-31T07:21:15.035Z,13.40
2018-03-31T07:22:15.059Z,13.20
2018-03-31T07:23:14.850Z,13.90
2018-03-31T07:24:14.847Z,13.50
2018-03-31T07:25:14.691Z,11.80
2018-03-31T07:26:14.700Z,9.90
2018-03-31T07:27:14.527Z,12.80
2018-03-31T07:28:14.570Z,13.10
2018-03-31T07:29:14.369Z,12.20
2018-03-31T07:30:14.374Z,11.70
2018-03-31T07:31:14.274Z,11.90
2018-03-31T07:32:14.212Z,11.20
2018-03-31T07:33:14.049Z,12.30
2018-03-31T07:34:14.098Z,12.30
2018-03-31T07:35:13.900Z,12.50
2018-03-31T07:36:13.916Z,11.00
2018-03-31T07:37:13.742Z,12.20
2018-03-31T07:38:13.713Z,11.20
2018-03-31T07:39:13.569Z,10.90
2018-03-31T07:40:13.625Z,11.30
2018-03-31T07:41:13.423Z,11.00
2018-03-31T07:42:13.462Z,11.00
2018-03-31T07:43:13.251Z,11.20
2018-03-31T07:44:13.238Z,10.70
2018-03-31T07:45:13.083Z,10.50
2018-03-31T07:46:13.149Z,10.40
2018-03-31T07:47:12.968Z,10.70
2018-03-31T07:48:12.947Z,9.40
2018-03-31T07:49:12.878Z,10.00
2018-03-31T07:50:12.761Z,9.60
2018-03-31T07:51:12.611Z,9.90
2018-03-31T07:52:12.766Z,9.90
2018-03-31T07:53:12.485Z,9.90
2018-03-31T07:54:12.488Z,9.70
2018-03-31T07:55:12.311Z,10.30
2018-03-31T07:56:12.292Z,9.30
2018-03-31T07:57:12.161Z,9.70
2018-03-31T07:58:12.100Z,8.90
2018-03-31T07:59:11.989Z,8.70
2018-03-31T08:00:12.011Z,9.20
2018-03-31T08:01:11.826Z,9.40
2018-03-31T08:02:11.881Z,8.80
2018-03-31T08:03:11.682Z,9.20
2018-03-31T08:04:11.638Z,8.80
2018-03-31T08:05:11.511Z,8.40
2018-03-31T08:06:11.543Z,8.20
2018-03-31T08:07:11.375Z,8.70
2018-03-31T08:08:11.346Z,8.20
2018-03-31T08:09:11.207Z,8.20
2018-03-31T08:10:11.132Z,7.70
2018-03-31T08:11:11.044Z,7.80
2018-03-31T08:12:11.074Z,7.10
2018-03-31T08:13:10.973Z,8.10
2018-03-31T08:14:10.880Z,8.20
2018-03-31T08:15:10.725Z,7.40
2018-03-31T08:16:10.698Z,7.80
2018-03-31T08:17:10.574Z,7.00
2018-03-31T08:18:10.635Z,7.60
2018-03-31T08:19:10.462Z,7.60
2018-03-31T08:20:10.398Z,7.90
2018-03-31T08:21:10.265Z,7.90
2018-03-31T08:22:10.310Z,6.90
2018-03-31T08:23:10.141Z,7.30
2018-03-31T08:24:10.166Z,6.80
2018-03-31T08:25:10.049Z,8.00
2018-03-31T08:26:09.928Z,7.80
2018-03-31T08:27:09.793Z,7.20
2018-03-31T08:28:09.976Z,9.40
2018-03-31T08:29:09.640Z,7.80
2018-03-31T08:30:09.645Z,8.30
2018-03-31T08:31:09.498Z,7.40
2018-03-31T08:32:09.559Z,7.10
2018-03-31T08:33:09.354Z,7.70
2018-03-31T08:34:09.372Z,7.50
2018-03-31T08:35:09.199Z,8.10
2018-03-31T08:36:09.200Z,7.70
2018-03-31T08:37:09.030Z,7.70
2018-03-31T08:38:08.980Z,7.80
2018-03-31T08:39:08.886Z,8.10
2018-03-31T08:40:08.893Z,6.70
2018-03-31T08:41:08.726Z,8.80
2018-03-31T08:42:09.022Z,7.40
2018-03-31T08:43:08.599Z,8.40
2018-03-31T08:44:09.228Z,7.20
2018-03-31T08:45:08.469Z,7.60
2018-03-31T08:47:50.362Z,8.20
2018-03-31T08:48:50.309Z,8.00
2018-03-31T08:49:50.238Z,7.90
2018-03-31T08:50:50.237Z,7.40
2018-03-31T08:51:50.057Z,7.10
2018-03-31T08:52:50.044Z,7.40
2018-03-31T08:53:49.893Z,7.50
2018-03-31T08:54:49.845Z,7.60
2018-03-31T08:55:49.756Z,7.70
2018-03-31T08:56:49.764Z,8.10
2018-03-31T08:57:49.700Z,7.60
2018-03-31T08:58:49.561Z,8.00
2018-03-31T08:59:49.474Z,7.80
2018-03-31T09:00:49.543Z,7.80
2018-03-31T09:01:49.285Z,8.20
2018-03-31T09:02:49.282Z,7.70
2018-03-31T09:03:49.195Z,7.50
2018-03-31T09:04:49.089Z,8.20
2018-03-31T09:05:48.990Z,8.30
2018-03-31T09:06:49.037Z,8.00
2018-03-31T09:07:48.838Z,8.30
2018-03-31T09:08:48.803Z,9.80
2018-03-31T09:09:48.703Z,9.50
2018-03-31T09:10:48.771Z,9.20
2018-03-31T09:11:48.525Z,7.60
2018-03-31T09:12:48.533Z,8.00
2018-03-31T09:13:48.444Z,9.60
2018-03-31T09:14:48.438Z,7.70
2018-03-31T09:16:48.307Z,6.90
2018-03-31T09:17:48.089Z,7.00
2018-03-31T09:18:48.066Z,6.70
2018-03-31T09:19:47.955Z,6.80
2018-03-31T09:20:47.978Z,6.70
2018-03-31T09:21:47.808Z,6.30
2018-03-31T09:22:47.785Z,5.10
2018-03-31T09:23:47.632Z,5.10
2018-03-31T09:24:47.702Z,6.10
2018-03-31T09:25:47.508Z,5.50
2018-03-31T09:26:47.497Z,5.10
2018-03-31T09:27:47.406Z,6.30
2018-03-31T09:28:47.407Z,6.00
2018-03-31T09:29:47.215Z,6.00
2018-03-31T09:30:47.221Z,6.20
2018-03-31T09:31:47.080Z,5.60
2018-03-31T09:32:47.028Z,5.60
2018-03-31T09:33:46.916Z,5.30
2018-03-31T09:36:28.892Z,6.30
2018-03-31T09:37:28.859Z,6.20
2018-03-31T09:38:28.731Z,6.60
2018-03-31T09:39:28.743Z,6.30
2018-03-31T09:40:28.585Z,6.80
2018-03-31T09:41:28.550Z,5.60
2018-03-31T09:42:28.455Z,4.80
2018-03-31T09:43:28.536Z,6.10
2018-03-31T09:44:28.280Z,5.60
2018-03-31T09:45:28.283Z,5.70
2018-03-31T09:46:28.132Z,6.00
2018-03-31T09:47:28.219Z,5.20
2018-03-31T09:48:28.034Z,6.30
2018-03-31T09:49:27.992Z,4.10
2018-03-31T09:50:27.855Z,4.40
2018-03-31T09:51:27.903Z,4.60
2018-03-31T09:52:27.704Z,4.40
2018-03-31T09:53:27.743Z,5.40
2018-03-31T09:54:27.570Z,5.60
2018-03-31T09:55:27.623Z,6.50
2018-03-31T09:56:27.426Z,6.40
2018-03-31T09:57:27.454Z,9.00
2018-03-31T09:58:27.337Z,5.10
2018-03-31T09:59:27.334Z,4.40
2018-03-31T10:00:27.177Z,4.50
2018-03-31T10:01:27.146Z,4.50
2018-03-31T10:02:27.019Z,4.70
2018-03-31T10:03:27.173Z,4.20
2018-03-31T10:04:26.891Z,3.90
2018-03-31T10:05:26.891Z,4.40
2018-03-31T10:06:26.765Z,4.00
2018-03-31T10:07:26.797Z,4.60
2018-03-31T10:08:26.585Z,3.80
2018-03-31T10:09:26.679Z,3.30
2018-03-31T10:10:26.469Z,3.40
2018-03-31T10:11:26.508Z,3.50
2018-03-31T10:12:26.396Z,3.90
2018-03-31T10:13:26.313Z,4.70
2018-03-31T10:14:26.218Z,3.60
2018-03-31T10:15:26.225Z,3.20
2018-03-31T10:16:26.061Z,4.40
2018-03-31T10:17:26.058Z,3.30
2018-03-31T10:18:25.909Z,3.40
2018-03-31T10:19:26.140Z,3.40
2018-03-31T10:20:25.785Z,3.50
2018-03-31T10:21:25.740Z,4.40
2018-03-31T10:22:25.628Z,3.40
2018-03-31T10:23:25.593Z,6.20
2018-03-31T10:24:25.568Z,61.20
2018-03-31T10:25:25.560Z,83.80
2018-03-31T10:26:25.369Z,68.10
2018-03-31T10:27:25.409Z,5.60
2018-03-31T10:28:25.211Z,4.30
2018-03-31T10:29:25.207Z,4.10
2018-03-31T10:30:25.095Z,4.00
2018-03-31T10:31:25.102Z,4.00
2018-03-31T10:32:25.178Z,4.10
2018-03-31T10:33:24.996Z,3.80
2018-03-31T10:34:24.840Z,3.70
2018-03-31T10:35:24.862Z,4.00
2018-03-31T10:36:24.685Z,5.90
2018-03-31T10:37:24.727Z,4.00
2018-03-31T10:38:24.524Z,5.00
2018-03-31T10:39:24.536Z,5.70
2018-03-31T10:40:24.612Z,4.40
2018-03-31T10:41:24.440Z,4.50
2018-03-31T10:42:24.259Z,4.20
2018-03-31T10:43:24.263Z,5.00
2018-03-31T10:44:24.118Z,4.20
2018-03-31T10:45:24.154Z,4.60
2018-03-31T10:46:24.002Z,4.70
2018-03-31T10:47:23.971Z,4.80
2018-03-31T10:48:23.837Z,5.20
2018-03-31T10:49:23.877Z,5.20
2018-03-31T10:50:23.725Z,4.30
2018-03-31T10:51:23.724Z,4.70
2018-03-31T10:52:23.565Z,3.80
2018-03-31T10:53:23.631Z,8.90
2018-03-31T10:54:23.433Z,7.10
2018-03-31T10:55:23.413Z,4.00
2018-03-31T10:56:23.759Z,4.50
2018-03-31T10:57:23.337Z,3.80
2018-03-31T10:58:23.187Z,5.60
2018-03-31T10:59:23.244Z,4.60
2018-03-31T11:00:23.055Z,4.20
2018-03-31T11:01:23.098Z,147.40
2018-03-31T11:02:23.480Z,240.60
2018-03-31T11:03:22.952Z,115.00
2018-03-31T11:04:22.768Z,166.20
2018-03-31T11:05:23.476Z,21.30
2018-03-31T11:06:22.650Z,5.50
2018-03-31T11:07:22.708Z,4.30
2018-03-31T11:08:22.496Z,4.90
2018-03-31T11:09:22.472Z,4.30
2018-03-31T11:10:22.371Z,4.40
2018-03-31T11:11:22.387Z,4.20
2018-03-31T11:12:22.255Z,4.10
2018-03-31T11:13:22.398Z,4.70
2018-03-31T11:14:22.120Z,4.10
2018-03-31T11:15:22.409Z,5.70
2018-03-31T11:16:21.982Z,24.40
2018-03-31T11:17:22.591Z,76.60
2018-03-31T11:18:21.863Z,125.90
2018-03-31T11:21:03.926Z,41.80
2018-03-31T11:22:03.932Z,4.80
2018-03-31T11:23:03.793Z,4.80
2018-03-31T11:24:03.914Z,3.00
2018-03-31T11:25:03.649Z,3.40
2018-03-31T11:26:03.638Z,4.50
2018-03-31T11:27:03.506Z,172.50
2018-03-31T11:28:03.600Z,100.90
2018-03-31T11:29:03.383Z,29.90
2018-03-31T11:30:03.379Z,70.80
2018-03-31T11:31:03.250Z,81.00
2018-03-31T11:32:03.280Z,11.10
2018-03-31T11:33:03.125Z,3.70
2018-03-31T11:34:03.086Z,4.50
2018-03-31T11:35:02.970Z,4.90
2018-03-31T11:36:03.001Z,5.10
2018-03-31T11:37:02.856Z,5.40
2018-03-31T11:38:02.824Z,5.40
2018-03-31T11:39:02.734Z,4.60
2018-03-31T11:40:02.712Z,3.60
2018-03-31T11:41:02.562Z,5.70
2018-03-31T11:42:02.623Z,5.40
2018-03-31T11:43:02.444Z,3.80
2018-03-31T11:44:02.514Z,4.80
2018-03-31T11:45:02.305Z,6.70
2018-03-31T11:46:02.350Z,7.20
2018-03-31T11:47:02.163Z,6.40
2018-03-31T11:48:02.190Z,4.40
2018-03-31T11:49:02.044Z,4.30
2018-03-31T11:50:02.053Z,6.50
2018-03-31T11:51:01.898Z,4.70
2018-03-31T11:52:01.863Z,2.60
2018-03-31T11:53:01.754Z,3.00
2018-03-31T11:54:01.823Z,6.80
2018-03-31T11:55:01.622Z,6.00
2018-03-31T11:56:01.686Z,3.60
2018-03-31T11:57:06.500Z,3.40
2018-03-31T11:58:01.498Z,3.80
2018-03-31T11:59:01.397Z,5.40
2018-03-31T12:00:01.335Z,4.20
2018-03-31T12:01:01.251Z,2.20
2018-03-31T12:02:01.227Z,2.50
2018-03-31T12:03:01.089Z,3.00
2018-03-31T12:04:01.026Z,3.30
2018-03-31T12:05:00.977Z,3.00
2018-03-31T12:06:00.940Z,3.40
2018-03-31T12:07:00.815Z,3.10
2018-03-31T12:08:00.850Z,3.20
2018-03-31T12:09:00.682Z,2.40
2018-03-31T12:10:00.698Z,2.90
2018-03-31T12:11:00.599Z,2.80
2018-03-31T12:12:00.559Z,4.00
2018-03-31T12:13:00.403Z,3.60
2018-03-31T12:14:00.957Z,2.30
2018-03-31T12:15:00.424Z,5.70
2018-03-31T12:16:00.281Z,2.30
2018-03-31T12:17:00.114Z,3.20
2018-03-31T12:18:00.190Z,4.30
2018-03-31T12:18:59.962Z,3.50
2018-03-31T12:20:00.050Z,3.20
2018-03-31T12:20:59.898Z,4.40
2018-03-31T12:23:41.928Z,3.10
2018-03-31T12:24:41.915Z,3.70
2018-03-31T12:25:41.821Z,3.10
2018-03-31T12:26:41.824Z,4.90
2018-03-31T12:27:41.690Z,3.00
2018-03-31T12:28:41.637Z,3.20
2018-03-31T12:29:41.499Z,3.30
2018-03-31T12:30:41.439Z,4.90
2018-03-31T12:31:41.342Z,3.90
2018-03-31T12:32:41.355Z,4.00
2018-03-31T12:52:03.738Z,5.00
2018-03-31T12:53:03.524Z,4.90
2018-03-31T12:54:03.563Z,2.20
2018-03-31T12:55:03.376Z,4.90
2018-03-31T12:56:03.419Z,3.00
2018-03-31T12:57:03.235Z,4.10
2018-03-31T12:58:03.229Z,3.60
2018-03-31T12:59:03.054Z,4.00
2018-03-31T13:00:03.033Z,3.60
2018-03-31T13:01:02.915Z,3.80
2018-03-31T13:02:02.990Z,4.10
2018-03-31T13:03:02.764Z,3.10
2018-03-31T13:04:02.756Z,3.40
2018-03-31T13:05:02.608Z,3.80
2018-03-31T13:06:02.659Z,3.30
2018-03-31T13:07:02.465Z,2.50
2018-03-31T13:08:02.410Z,3.70
2018-03-31T13:09:02.284Z,4.00
2018-03-31T13:10:02.282Z,4.20
2018-03-31T13:11:02.146Z,4.80
2018-03-31T13:12:02.096Z,4.00
2018-03-31T13:13:02.005Z,4.70
2018-03-31T13:14:02.016Z,3.20
2018-03-31T13:15:01.828Z,2.90
2018-03-31T13:16:01.804Z,4.80
2018-03-31T13:17:01.681Z,4.60
2018-03-31T13:18:01.664Z,2.20
2018-03-31T13:19:01.522Z,3.90
2018-03-31T13:20:01.534Z,3.30
2018-03-31T13:21:01.367Z,3.90
2018-03-31T13:22:01.331Z,3.20
2018-03-31T13:23:01.233Z,4.40
2018-03-31T13:24:01.247Z,2.40
2018-03-31T13:25:01.052Z,2.90
2018-03-31T13:26:01.047Z,3.60
2018-03-31T13:27:00.896Z,5.30
2018-03-31T13:28:00.890Z,2.80
2018-03-31T13:29:00.737Z,2.70
2018-03-31T13:30:00.768Z,2.90
2018-03-31T13:31:00.601Z,3.40
2018-03-31T13:32:00.588Z,3.20